Time;durP1;ratioP1;P1;durP2;ratioP2;P2;SDS_P1;SDS_P2;PMS_P1;PMS_P2;Temp;Humidity;BMP_temperature;BMP_pressure;BME280_temperature;BME280_humidity;BME280_pressure;Samples;Min_cycle;Max_cycle;Signal;HPM_P1;HPM_P2
2022/08/31 00:05:10;;;;;;;5.43;5.13;;;;;;;19.11;71.49;101579.88;6045427;23;20026;-75
2022/08/31 00:07:37;;;;;;;5.80;5.40;;;;;;;19.37;70.58;101635.66;5991577;23;20557;-74
2022/08/31 00:10:17;;;;;;;5.72;5.43;;;;;;;19.16;71.18;101608.81;6048521;23;20027;-73
2022/08/31 00:12:46;;;;;;;5.30;5.00;;;;;;;19.18;72.55;101633.50;6026585;23;20006;-74
2022/08/31 00:15:16;;;;;;;5.80;5.40;;;;;;;18.98;72.28;101619.81;6050323;23;20036;-73
2022/08/31 00:17:44;;;;;;;6.00;5.50;;;;;;;18.83;72.95;101594.38;6022533;23;20511;-73
2022/08/31 00:20:14;;;;;;;5.30;5.00;;;;;;;18.73;73.59;101589.69;6052973;23;20091;-73
2022/08/31 00:23:00;;;;;;;5.80;5.47;;;;;;;18.38;75.58;101549.69;6025257;23;20697;-74
2022/08/31 00:25:26;;;;;;;7.18;6.78;;;;;;;18.84;75.91;101634.16;6049199;23;20021;-73
2022/08/31 00:27:54;;;;;;;6.28;5.88;;;;;;;18.51;76.20;101592.19;6000046;23;20027;-74
2022/08/31 00:30:21;;;;;;;8.27;6.50;;;;;;;18.42;76.70;101582.19;6052891;23;20029;-74
2022/08/31 00:32:47;;;;;;;5.85;5.55;;;;;;;18.09;77.71;101547.28;6021648;23;20023;-74
2022/08/31 00:35:15;;;;;;;6.10;5.75;;;;;;;18.39;79.06;101591.25;5996777;23;20024;-73
2022/08/31 00:37:41;;;;;;;5.80;5.50;;;;;;;18.56;80.07;101631.72;6046780;23;20018;-74
2022/08/31 00:40:08;;;;;;;5.63;5.32;;;;;;;18.39;81.23;101627.63;5998707;23;20015;-74
2022/08/31 00:42:35;;;;;;;6.30;5.90;;;;;;;18.33;81.96;101628.88;6019185;23;20026;-73
2022/08/31 00:45:05;;;;;;;6.10;5.70;;;;;;;17.59;82.08;101527.72;6000089;23;20027;-74
2022/08/31 00:47:31;;;;;;;7.18;6.68;;;;;;;17.31;82.23;101503.06;6048206;23;20007;-74
2022/08/31 00:49:58;;;;;;;5.95;5.47;;;;;;;18.15;82.54;101633.69;6022049;23;20123;-74
2022/08/31 00:52:35;;;;;;;7.28;6.75;;;;;;;17.49;82.99;101548.72;6040595;23;20125;-74
2022/08/31 00:55:27;;;;;;;6.20;5.80;;;;;;;18.09;83.48;101636.75;6021071;23;20574;-73
2022/08/31 00:57:58;;;;;;;7.22;6.05;;;;;;;17.80;84.23;101599.75;5987065;23;20512;-74
2022/08/31 01:00:27;;;;;;;7.40;6.72;;;;;;;18.03;84.15;101634.53;6020221;23;20008;-74
2022/08/31 01:02:55;;;;;;;5.80;5.50;;;;;;;17.95;85.14;101624.44;6054241;23;20020;-74
2022/08/31 01:05:21;;;;;;;7.15;6.68;;;;;;;17.90;85.62;101627.41;6010484;23;20027;-74
2022/08/31 01:07:49;;;;;;;6.07;5.57;;;;;;;17.90;85.47;101631.84;6028522;23;20006;-74
2022/08/31 01:10:19;;;;;;;6.00;5.60;;;;;;;17.79;85.16;101615.78;6022193;23;20724;-74
2022/08/31 01:12:47;;;;;;;6.05;5.75;;;;;;;17.97;84.33;101629.66;6033676;23;20081;-74
2022/08/31 01:15:16;;;;;;;5.72;5.45;;;;;;;17.30;84.68;101521.75;6025403;23;20015;-74
2022/08/31 01:17:43;;;;;;;6.50;6.03;;;;;;;17.97;85.19;101633.13;5998579;23;20023;-74
2022/08/31 01:20:33;;;;;;;5.38;5.07;;;;;;;17.85;85.45;101618.88;6061870;23;20013;-74
2022/08/31 01:23:01;;;;;;;6.47;6.07;;;;;;;17.94;85.88;101633.34;6026705;23;20362;-74
2022/08/31 01:25:28;;;;;;;7.13;6.63;;;;;;;17.37;86.03;101541.59;6053687;23;20026;-74
2022/08/31 01:28:02;;;;;;;6.43;5.93;;;;;;;16.97;87.09;101499.19;5976958;23;20051;-74
2022/08/31 01:30:29;;;;;;;7.22;6.82;;;;;;;17.68;87.59;101624.44;6048357;23;20060;-74
2022/08/31 01:32:55;;;;;;;5.95;5.65;;;;;;;17.87;88.11;101653.31;5998424;23;20019;-74
2022/08/31 01:35:22;;;;;;;6.97;6.47;;;;;;;17.85;89.93;101649.91;6053369;23;20034;-74
2022/08/31 01:37:49;;;;;;;6.20;5.80;;;;;;;16.81;91.15;101509.06;6020674;23;20022;-74
2022/08/31 01:40:16;;;;;;;6.32;5.93;;;;;;;16.75;91.65;101500.56;6054534;23;20100;-75
2022/08/31 01:42:43;;;;;;;6.00;5.60;;;;;;;17.25;92.11;101593.69;6002064;23;20403;-74
2022/08/31 01:45:10;;;;;;;6.15;5.65;;;;;;;17.32;92.71;101610.06;6059062;23;20448;-74
2022/08/31 01:47:38;;;;;;;5.85;5.53;;;;;;;17.53;93.04;101651.06;6018705;23;20160;-75
2022/08/31 01:50:06;;;;;;;5.95;5.65;;;;;;;16.96;93.91;101555.81;6000084;23;20023;-74
2022/08/31 01:52:33;;;;;;;6.85;6.40;;;;;;;17.09;94.86;101587.69;6048710;23;20014;-74
2022/08/31 01:55:02;;;;;;;5.90;5.60;;;;;;;17.45;94.44;101649.91;5999631;23;20090;-74
2022/08/31 01:57:28;;;;;;;7.82;7.28;;;;;;;16.52;95.04;101512.66;5993673;23;20031;-74
2022/08/31 02:00:01;;;;;;;7.10;6.60;;;;;;;17.00;96.03;101594.44;6057087;23;20015;-74
2022/08/31 02:02:27;;;;;;;8.55;6.75;;;;;;;17.42;95.46;101664.22;6006820;23;20038;-74
2022/08/31 02:04:53;;;;;;;5.95;5.60;;;;;;;16.85;95.70;101550.38;6058733;23;20014;-74
2022/08/31 02:07:20;;;;;;;7.45;6.95;;;;;;;17.10;97.98;101595.56;6019544;23;20035;-74
2022/08/31 02:09:47;;;;;;;6.70;6.05;;;;;;;17.40;97.98;101657.28;6052348;23;20030;-75
2022/08/31 02:12:16;;;;;;;6.28;5.88;;;;;;;17.37;97.92;101649.56;6026162;23;20658;-75
2022/08/31 02:14:42;;;;;;;6.20;5.80;;;;;;;17.33;98.79;101655.03;6053831;23;20022;-74
2022/08/31 02:17:09;;;;;;;5.90;5.55;;;;;;;17.32;99.77;101669.28;6023184;23;20678;-75
2022/08/31 02:19:36;;;;;;;8.50;6.40;;;;;;;17.32;100.00;101663.97;6050136;23;20011;-75
2022/08/31 02:22:02;;;;;;;6.28;5.88;;;;;;;17.08;100.00;101654.97;6024436;23;20022;-75
2022/08/31 02:24:29;;;;;;;7.75;7.18;;;;;;;16.72;100.00;101604.13;6055440;23;20522;-75
2022/08/31 02:26:56;;;;;;;6.32;5.85;;;;;;;16.98;100.00;101654.69;6025295;23;20011;-75
2022/08/31 02:29:22;;;;;;;7.07;6.57;;;;;;;16.93;100.00;101648.81;6054656;23;20026;-75
2022/08/31 02:31:48;;;;;;;6.57;6.18;;;;;;;16.53;100.00;101600.94;5992299;23;20480;-75
2022/08/31 02:34:16;;;;;;;5.97;5.65;;;;;;;16.66;100.00;101631.03;6056082;23;20101;-75
2022/08/31 02:36:44;;;;;;;6.10;5.70;;;;;;;16.87;100.00;101671.25;6006482;23;20033;-75
2022/08/31 02:39:12;;;;;;;6.55;5.82;;;;;;;16.11;100.00;101544.41;6057103;23;20034;-76
2022/08/31 02:41:41;;;;;;;6.63;6.22;;;;;;;16.88;100.00;101669.50;6006942;23;20102;-75
2022/08/31 02:44:07;;;;;;;9.88;5.85;;;;;;;16.63;100.00;101625.06;6048920;23;20364;-75
2022/08/31 02:46:34;;;;;;;5.93;5.63;;;;;;;16.87;100.00;101658.00;6002956;23;20654;-76
2022/08/31 02:49:00;;;;;;;6.22;5.82;;;;;;;16.79;100.00;101656.75;6053890;23;20015;-75
2022/08/31 02:51:27;;;;;;;7.00;6.60;;;;;;;16.67;100.00;101622.13;6023405;23;20105;-75
2022/08/31 02:53:53;;;;;;;6.60;6.00;;;;;;;16.07;100.00;101537.59;6052103;23;20154;-75
2022/08/31 02:56:20;;;;;;;6.95;6.55;;;;;;;16.32;100.00;101598.69;5997923;23;20035;-75
2022/08/31 02:58:53;;;;;;;6.47;6.07;;;;;;;16.59;100.00;101647.41;6055204;23;20508;-75
2022/08/31 03:01:23;;;;;;;;;;;;;;;16.75;100.00;101654.28;6023030;23;20018;-75
2022/08/31 03:03:49;;;;;;;5.93;5.53;;;;;;;16.77;100.00;101662.16;6023864;23;20372;-76
2022/08/31 03:06:18;;;;;;;6.45;6.07;;;;;;;16.01;100.00;101537.97;6004245;23;20015;-75
2022/08/31 03:08:45;;;;;;;5.78;5.47;;;;;;;16.80;100.00;101666.41;6052629;23;20022;-75
2022/08/31 03:11:12;;;;;;;7.63;7.03;;;;;;;16.80;100.00;101664.63;6026825;23;20047;-75
2022/08/31 03:13:40;;;;;;;5.85;5.55;;;;;;;16.77;100.00;101678.06;5980565;23;20015;-76
2022/08/31 03:16:07;;;;;;;6.00;5.60;;;;;;;15.90;100.00;101536.84;6051121;23;20029;-75
2022/08/31 03:18:34;;;;;;;7.85;7.25;;;;;;;15.76;100.00;101505.06;6024314;23;20456;-75
2022/08/31 03:21:01;;;;;;;5.95;5.63;;;;;;;16.25;100.00;101580.63;6052815;23;20030;-75
2022/08/31 03:23:27;;;;;;;7.18;6.78;;;;;;;16.68;100.00;101639.75;6024206;23;20123;-75
2022/08/31 03:25:54;;;;;;;6.03;5.63;;;;;;;16.50;100.00;101609.09;6050944;23;20015;-75
2022/08/31 03:28:20;;;;;;;8.45;7.80;;;;;;;16.14;100.00;101568.91;5967692;23;20031;-76
2022/08/31 03:30:47;;;;;;;6.05;5.75;;;;;;;16.06;100.00;101550.00;6055853;23;20011;-76
2022/08/31 03:33:14;;;;;;;6.18;5.78;;;;;;;16.46;100.00;101624.34;6020412;23;20050;-75
2022/08/31 03:35:42;;;;;;;5.65;5.35;;;;;;;16.26;100.00;101577.88;6025013;23;20471;-75
2022/08/31 03:38:11;;;;;;;5.88;5.57;;;;;;;16.58;100.00;101630.66;5983005;23;20031;-76
2022/08/31 03:40:40;;;;;;;6.00;5.60;;;;;;;16.58;100.00;101637.75;6044157;23;20615;-75
2022/08/31 03:43:10;;;;;;;6.60;6.10;;;;;;;16.57;100.00;101618.34;6017578;23;20035;-76
2022/08/31 03:45:41;;;;;;;6.43;6.03;;;;;;;14.93;100.00;101356.66;6021123;23;20015;-75
2022/08/31 03:48:09;;;;;;;15.73;5.63;;;;;;;16.51;100.00;101619.59;6004141;23;20023;-75
2022/08/31 03:50:39;;;;;;;6.28;5.88;;;;;;;15.86;100.00;101526.53;6025545;23;20077;-75
2022/08/31 03:53:07;;;;;;;6.28;5.82;;;;;;;16.06;100.00;101562.38;6027133;23;20018;-75
2022/08/31 03:55:37;;;;;;;6.53;6.13;;;;;;;16.53;100.00;101627.44;6022163;23;20053;-75
2022/08/31 03:58:03;;;;;;;6.70;6.22;;;;;;;16.51;100.00;101621.38;6017229;23;20045;-75
2022/08/31 04:00:32;;;;;;;6.97;6.57;;;;;;;16.49;100.00;101631.22;6046342;23;20025;-75
2022/08/31 04:03:00;;;;;;;5.70;5.40;;;;;;;16.49;100.00;101626.78;6018377;23;20029;-75
2022/08/31 04:05:31;;;;;;;7.18;6.78;;;;;;;15.83;100.00;101524.91;5993304;23;20038;-75
2022/08/31 04:07:58;;;;;;;6.00;5.60;;;;;;;15.47;100.00;101494.41;6048226;23;20727;-75
2022/08/31 04:10:25;;;;;;;6.50;6.18;;;;;;;16.39;100.00;101627.44;6007347;23;20047;-75
2022/08/31 04:12:51;;;;;;;6.22;5.82;;;;;;;16.12;100.00;101597.28;6052629;23;20070;-75
2022/08/31 04:15:18;;;;;;;7.03;6.57;;;;;;;15.88;100.00;101549.31;6023303;23;20203;-75
2022/08/31 04:17:45;;;;;;;6.28;5.88;;;;;;;16.32;100.00;101624.34;5993936;23;20043;-75
2022/08/31 04:20:12;;;;;;;7.13;6.28;;;;;;;16.35;100.00;101621.50;6055792;23;20095;-75
2022/08/31 04:22:39;;;;;;;6.18;5.78;;;;;;;16.23;100.00;101615.13;6018578;23;20365;-76
2022/08/31 04:25:09;;;;;;;6.10;5.70;;;;;;;16.34;100.00;101622.44;6056096;23;20393;-76
2022/08/31 04:27:36;;;;;;;6.40;6.00;;;;;;;15.77;100.00;101522.66;6021058;23;21541;-76
2022/08/31 04:30:06;;;;;;;6.40;5.90;;;;;;;16.37;100.00;101614.28;6050715;23;20030;-75
2022/08/31 04:32:33;;;;;;;7.00;6.50;;;;;;;15.91;100.00;101543.81;6023159;23;20039;-76
2022/08/31 04:35:00;;;;;;;6.60;6.20;;;;;;;16.08;100.00;101595.75;5977175;23;20387;-75
2022/08/31 04:37:28;;;;;;;10.57;7.15;;;;;;;16.33;100.00;101633.97;6043062;23;20105;-76
2022/08/31 04:39:56;;;;;;;6.00;5.70;;;;;;;16.02;100.00;101574.13;6011470;23;20063;-76
2022/08/31 04:42:25;;;;;;;7.90;7.40;;;;;;;16.23;100.00;101615.13;6051466;23;20037;-76
2022/08/31 04:44:51;;;;;;;6.55;6.15;;;;;;;16.30;100.00;101628.88;6009033;23;20055;-76
2022/08/31 04:47:19;;;;;;;6.30;5.90;;;;;;;16.29;100.00;101630.66;6055485;23;20033;-76
2022/08/31 04:49:46;;;;;;;6.15;5.75;;;;;;;16.24;100.00;101614.22;6023092;23;20563;-77
2022/08/31 04:52:12;;;;;;;6.47;6.07;;;;;;;16.05;100.00;101603.88;6033244;23;20361;-77
2022/08/31 04:54:39;;;;;;;7.65;6.97;;;;;;;16.03;100.00;101597.81;6024723;23;20025;-77
2022/08/31 04:57:06;;;;;;;6.38;5.97;;;;;;;15.58;100.00;101540.56;6002939;23;20595;-76
2022/08/31 04:59:32;;;;;;;7.47;6.97;;;;;;;15.63;100.00;101538.47;6064219;23;20108;-76
2022/08/31 05:01:59;;;;;;;6.30;5.80;;;;;;;15.74;100.00;101567.84;6044343;23;20010;-77
2022/08/31 05:04:27;;;;;;;7.75;7.22;;;;;;;15.70;100.00;101555.69;6085414;23;20032;-77
2022/08/31 05:06:54;;;;;;;6.07;5.68;;;;;;;15.86;100.00;101584.78;6028967;23;20535;-77
2022/08/31 05:09:22;;;;;;;6.53;6.22;;;;;;;15.38;100.00;101504.72;6085051;23;20020;-76
2022/08/31 05:11:51;;;;;;;6.53;5.90;;;;;;;15.63;100.00;101549.06;6033841;23;20018;-78
2022/08/31 05:14:18;;;;;;;7.43;6.93;;;;;;;16.08;100.00;101624.03;6067410;23;20032;-75
2022/08/31 05:16:45;;;;;;;8.93;6.10;;;;;;;16.10;100.00;101630.94;6062629;23;20114;-75
2022/08/31 05:19:12;;;;;;;6.18;5.78;;;;;;;16.15;100.00;101625.34;6079744;23;20034;-75
2022/08/31 05:21:40;;;;;;;5.90;5.60;;;;;;;16.17;100.00;101625.28;6068399;23;20034;-75
2022/08/31 05:24:16;;;;;;;5.90;5.50;;;;;;;15.90;100.00;101571.25;6078039;23;20616;-75
2022/08/31 05:26:48;;;;;;;7.07;5.75;;;;;;;16.23;100.00;101620.44;6050616;23;20608;-75
2022/08/31 05:29:18;;;;;;;6.77;6.27;;;;;;;16.14;100.00;101599.84;6057288;23;20022;-75
2022/08/31 05:31:45;;;;;;;6.35;5.95;;;;;;;16.34;100.00;101615.34;6033100;23;20096;-76
2022/08/31 05:34:18;;;;;;;7.63;7.10;;;;;;;16.37;100.00;101616.94;6060211;23;20073;-76
2022/08/31 05:36:49;;;;;;;6.10;5.72;;;;;;;15.98;100.00;101549.63;6031123;23;20082;-76
2022/08/31 05:39:15;;;;;;;7.13;6.63;;;;;;;15.84;100.00;101539.88;6083480;23;20491;-75
2022/08/31 05:41:44;;;;;;;6.90;6.30;;;;;;;15.88;100.00;101551.13;6011673;23;20054;-75
2022/08/31 05:44:12;;;;;;;6.65;6.25;;;;;;;16.26;100.00;101609.66;6063318;23;20025;-76
2022/08/31 05:46:39;;;;;;;6.15;5.75;;;;;;;16.14;100.00;101589.25;6057096;23;20030;-75
2022/08/31 05:49:07;;;;;;;6.05;5.65;;;;;;;15.94;100.00;101545.44;6085922;23;20081;-74
2022/08/31 05:51:37;;;;;;;7.15;6.65;;;;;;;16.35;100.00;101611.72;6061182;23;20662;-77
2022/08/31 05:54:04;;;;;;;6.47;5.97;;;;;;;15.88;100.00;101533.44;6085875;23;20025;-76
2022/08/31 05:56:30;;;;;;;7.70;7.20;;;;;;;16.28;100.00;101609.59;6057723;23;20051;-76
2022/08/31 05:58:57;;;;;;;7.20;6.50;;;;;;;15.81;100.00;101534.75;6045183;23;20028;-75
2022/08/31 06:01:31;;;;;;;7.65;7.15;;;;;;;16.25;100.00;101605.31;5979175;23;20441;-75
2022/08/31 06:03:59;;;;;;;6.57;6.07;;;;;;;16.28;100.00;101612.22;6052848;23;20002;-75
2022/08/31 06:06:26;;;;;;;7.13;6.72;;;;;;;15.84;100.00;101534.56;6019356;23;20093;-75
2022/08/31 06:08:53;;;;;;;7.30;6.80;;;;;;;16.20;100.00;101590.66;6003408;23;20046;-77
2022/08/31 06:11:24;;;;;;;6.97;6.57;;;;;;;16.32;100.00;101613.75;6029432;23;20022;-76
2022/08/31 06:13:53;;;;;;;5.95;5.65;;;;;;;16.18;100.00;101592.53;6022769;23;20018;-77
2022/08/31 06:16:21;;;;;;;6.43;6.03;;;;;;;15.68;100.00;101507.31;6051642;23;20026;-76
2022/08/31 06:18:49;;;;;;;5.65;5.35;;;;;;;15.73;100.00;101527.25;6015455;23;20046;-76
2022/08/31 06:21:22;;;;;;;7.10;6.50;;;;;;;15.74;100.00;101544.03;6051896;23;20034;-76
2022/08/31 06:23:50;;;;;;;5.63;5.32;;;;;;;16.37;100.00;101609.00;5992006;23;20019;-77
2022/08/31 06:26:19;;;;;;;7.13;6.63;;;;;;;16.22;100.00;101589.63;6032197;23;20053;-77
2022/08/31 06:28:49;;;;;;;6.13;5.72;;;;;;;16.41;100.00;101607.00;6040947;23;20078;-77
2022/08/31 06:31:30;;;;;;;6.75;6.28;;;;;;;15.33;100.00;101442.38;6060517;23;20026;-76
2022/08/31 06:33:58;;;;;;;5.82;5.47;;;;;;;16.08;100.00;101553.41;6025428;23;20014;-76
2022/08/31 06:36:28;;;;;;;7.30;6.90;;;;;;;16.48;100.00;101624.25;6053705;23;20503;-76
2022/08/31 06:38:58;;;;;;;5.60;5.30;;;;;;;16.50;100.00;101622.34;6026471;23;20025;-76
2022/08/31 06:41:37;;;;;;;6.80;6.47;;;;;;;16.21;100.00;101574.66;5988256;23;20020;-77
2022/08/31 06:44:06;;;;;;;5.93;5.53;;;;;;;16.22;100.00;101586.13;6049240;23;20030;-76
2022/08/31 06:46:35;;;;;;;6.82;6.30;;;;;;;16.43;100.00;101621.88;6034618;23;20029;-76
2022/08/31 06:49:02;;;;;;;6.15;5.75;;;;;;;16.19;100.00;101571.25;6052814;23;20017;-76
2022/08/31 06:51:35;;;;;;;7.35;6.85;;;;;;;16.35;100.00;101606.44;6031147;23;20031;-76
2022/08/31 06:54:06;;;;;;;5.97;5.57;;;;;;;16.47;100.00;101609.28;6050542;23;20026;-76
2022/08/31 06:56:52;;;;;;;6.05;5.65;;;;;;;16.38;100.00;101583.34;6004021;23;20034;-76
2022/08/31 06:59:19;;;;;;;6.80;6.35;;;;;;;15.85;100.00;101482.47;6055078;23;20018;-76
2022/08/31 07:01:45;;;;;;;6.00;5.65;;;;;;;16.24;100.00;101532.09;5996625;23;20513;-76
2022/08/31 07:04:13;;;;;;;6.05;5.75;;;;;;;16.50;100.00;101559.59;6055057;23;20014;-76
2022/08/31 07:06:42;;;;;;;6.03;5.70;;;;;;;17.00;100.00;101634.22;6025742;23;20081;-77
2022/08/31 07:09:12;;;;;;;6.18;5.78;;;;;;;17.02;100.00;101618.19;6051327;23;20030;-76
2022/08/31 07:11:42;;;;;;;6.00;5.70;;;;;;;17.13;100.00;101635.13;6020291;23;20488;-76
2022/08/31 07:14:14;;;;;;;6.80;5.85;;;;;;;17.14;100.00;101633.34;6041740;23;20305;-76
2022/08/31 07:16:42;;;;;;;6.38;5.88;;;;;;;17.25;100.00;101630.81;6018914;23;20079;-76
2022/08/31 07:19:09;;;;;;;8.48;6.00;;;;;;;16.84;100.00;101561.91;6045665;23;20029;-76
2022/08/31 07:21:41;;;;;;;6.50;6.10;;;;;;;17.43;100.00;101631.41;6023620;23;20029;-75
2022/08/31 07:24:09;;;;;;;7.80;5.70;;;;;;;17.50;100.00;101639.81;6047691;23;20033;-76
2022/08/31 07:26:45;;;;;;;6.28;5.78;;;;;;;17.14;100.00;101578.47;6002140;23;20078;-76
2022/08/31 07:29:14;;;;;;;6.05;5.65;;;;;;;17.59;100.00;101633.91;6054987;23;20089;-76
2022/08/31 07:31:50;;;;;;;6.18;5.72;;;;;;;17.60;100.00;101632.09;5971364;23;20030;-76
2022/08/31 07:34:26;;;;;;;7.15;6.72;;;;;;;17.66;100.00;101635.19;6039305;23;20030;-77
2022/08/31 07:42:39;;;;;;;7.68;6.82;;;;;;;17.51;100.00;101578.66;6024729;23;20349;-77
2022/08/31 07:45:10;;;;;;;7.68;6.38;;;;;;;18.13;100.00;101635.59;5985331;23;20029;-76
2022/08/31 07:47:43;;;;;;;6.35;5.85;;;;;;;18.44;98.82;101628.13;6050267;23;20018;-76
2022/08/31 07:50:12;;;;;;;6.25;5.85;;;;;;;18.36;94.36;101572.84;6023309;23;20401;-76
2022/08/31 07:52:46;;;;;;;6.53;6.00;;;;;;;18.64;91.84;101606.31;5968222;23;21526;-76
2022/08/31 07:55:16;;;;;;;6.03;5.72;;;;;;;18.97;91.88;101639.44;6025268;23;20161;-76
2022/08/31 07:57:43;;;;;;;6.97;6.43;;;;;;;18.84;90.37;101610.22;5993373;23;20031;-76
2022/08/31 08:00:13;;;;;;;6.13;5.57;;;;;;;19.00;89.52;101628.53;6038345;23;20015;-76
2022/08/31 08:02:41;;;;;;;6.40;6.00;;;;;;;19.17;90.02;101634.47;6006623;23;20082;-77
2022/08/31 08:05:09;;;;;;;6.88;6.38;;;;;;;19.32;88.99;101628.00;6060097;23;20287;-75
2022/08/31 08:07:38;;;;;;;6.60;6.10;;;;;;;19.62;89.07;101631.97;6028749;23;20026;-75
2022/08/31 08:10:08;;;;;;;6.38;5.97;;;;;;;19.48;87.40;101588.63;5998567;23;20019;-76
2022/08/31 08:12:35;;;;;;;6.95;6.32;;;;;;;19.37;84.88;101551.31;6046134;23;20380;-76
2022/08/31 08:15:05;;;;;;;6.15;5.75;;;;;;;19.58;84.32;101588.75;5997614;23;20035;-77
2022/08/31 08:17:32;;;;;;;8.07;7.57;;;;;;;19.85;85.43;101633.78;6050445;23;20086;-76
2022/08/31 08:19:58;;;;;;;6.85;6.40;;;;;;;19.40;85.48;101559.06;6003682;23;20017;-76
2022/08/31 08:22:25;;;;;;;8.05;7.32;;;;;;;19.58;84.26;101585.25;6042549;23;20018;-76
2022/08/31 08:25:12;;;;;;;6.40;5.95;;;;;;;19.75;85.42;101635.47;5998269;23;20035;-76
2022/08/31 08:27:42;;;;;;;6.45;6.05;;;;;;;19.78;85.14;101635.19;6048104;23;20006;-76
2022/08/31 08:30:12;;;;;;;6.88;6.38;;;;;;;20.14;84.14;101638.66;6018610;23;20045;-76
2022/08/31 08:32:40;;;;;;;6.45;6.05;;;;;;;20.05;81.28;101594.94;5967858;23;20016;-75
2022/08/31 08:35:11;;;;;;;6.40;6.00;;;;;;;20.43;80.45;101630.22;6030094;23;20027;-76
2022/08/31 08:37:41;;;;;;;6.15;5.85;;;;;;;20.72;79.56;101631.41;5994178;23;20070;-76
2022/08/31 08:40:27;;;;;;;7.80;7.30;;;;;;;21.00;77.51;101623.84;6047071;23;20026;-76
2022/08/31 08:42:53;;;;;;;6.80;6.30;;;;;;;20.42;74.96;101536.03;6008447;23;20602;-76
2022/08/31 08:45:20;;;;;;;8.10;7.50;;;;;;;20.65;77.44;101550.22;6046576;23;20018;-76
2022/08/31 08:47:48;;;;;;;6.43;6.03;;;;;;;20.79;74.45;101543.75;5997486;23;20032;-77
2022/08/31 08:50:17;;;;;;;6.07;5.68;;;;;;;20.88;74.22;101542.13;6050609;23;20022;-75
2022/08/31 08:52:46;;;;;;;6.22;5.93;;;;;;;21.56;74.29;101617.47;5995477;23;20015;-75
2022/08/31 08:55:20;;;;;;;6.82;6.40;;;;;;;21.32;73.23;101621.19;6060122;23;20033;-75
2022/08/31 08:57:48;;;;;;;6.55;6.15;;;;;;;20.89;72.53;101535.84;6001370;23;20074;-76
2022/08/31 09:00:19;;;;;;;7.05;6.55;;;;;;;21.60;70.62;101610.91;6045638;23;20030;-76
2022/08/31 09:03:10;;;;;;;7.25;6.75;;;;;;;21.29;71.14;101602.78;6025948;23;20007;-76
2022/08/31 09:06:08;;;;;;;6.35;5.97;;;;;;;21.74;71.75;101612.41;6028461;23;20034;-77
2022/08/31 09:09:02;;;;;;;7.25;6.75;;;;;;;21.87;70.88;101613.06;6017957;23;20019;-76
2022/08/31 09:11:45;;;;;;;6.78;6.20;;;;;;;21.74;68.73;101574.16;5978746;23;20516;-76
2022/08/31 09:14:21;;;;;;;6.68;6.28;;;;;;;21.84;69.23;101632.03;5992837;23;20018;-75
2022/08/31 09:17:06;;;;;;;6.93;6.53;;;;;;;22.13;67.78;101606.44;6050914;23;20045;-76
2022/08/31 09:19:57;;;;;;;6.70;6.25;;;;;;;22.06;67.74;101598.94;6017164;23;20573;-77
2022/08/31 09:22:19;;;;;;;7.88;7.38;;;;;;;21.99;68.70;101530.97;6048462;23;20046;-77
2022/08/31 09:24:58;;;;;;;6.45;5.95;;;;;;;22.08;66.28;101546.19;6030991;23;20089;-76
2022/08/31 09:27:45;;;;;;;8.15;7.65;;;;;;;22.18;67.36;101610.41;6050623;23;20030;-76
2022/08/31 09:30:34;;;;;;;6.18;5.78;;;;;;;22.13;67.67;101561.84;5993438;23;20043;-76
2022/08/31 09:33:01;;;;;;;6.68;6.28;;;;;;;22.39;67.88;101548.03;6053364;23;20077;-77
2022/08/31 09:35:39;;;;;;;8.13;7.63;;;;;;;22.78;67.07;101575.72;6021693;23;20037;-76
2022/08/31 09:38:16;;;;;;;6.63;6.13;;;;;;;22.76;68.20;101595.56;6001845;23;20028;-77
2022/08/31 09:40:51;;;;;;;6.78;6.28;;;;;;;22.61;66.33;101593.28;6020878;23;20027;-76
2022/08/31 09:43:30;;;;;;;7.20;6.80;;;;;;;22.69;65.45;101600.63;6052745;23;20022;-77
2022/08/31 09:46:24;;;;;;;7.00;6.45;;;;;;;22.98;65.07;101565.88;6020529;23;20015;-76
2022/08/31 09:48:55;;;;;;;6.43;6.03;;;;;;;23.04;65.88;101602.81;6054686;23;20030;-76
2022/08/31 09:51:27;;;;;;;7.82;7.32;;;;;;;22.94;65.73;101601.09;5998906;23;20196;-76
2022/08/31 09:56:54;;;;;;;7.00;6.50;;;;;;;22.86;63.94;101521.50;6029693;23;20054;-77
2022/08/31 09:59:40;;;;;;;7.72;7.15;;;;;;;23.36;62.95;101601.72;6054585;23;20057;-76
2022/08/31 10:02:23;;;;;;;6.85;6.35;;;;;;;23.51;64.12;101599.44;6028407;23;20027;-76
2022/08/31 10:04:56;;;;;;;6.32;5.93;;;;;;;22.54;64.50;101460.22;6053010;23;20026;-77
2022/08/31 10:07:36;;;;;;;7.38;6.88;;;;;;;23.26;64.47;101598.19;6028262;23;20007;-77
2022/08/31 10:10:12;;;;;;;6.63;6.22;;;;;;;23.05;64.44;101599.19;6052808;23;20015;-76
2022/08/31 10:13:23;;;;;;;6.90;5.95;;;;;;;23.35;63.29;101605.38;6025271;23;20019;-76
2022/08/31 10:15:58;;;;;;;6.38;5.97;;;;;;;23.85;62.51;101602.53;6060049;23;20020;-76
2022/08/31 10:18:41;;;;;;;7.75;7.15;;;;;;;24.12;60.61;101592.00;6023593;23;20085;-77
2022/08/31 10:21:20;;;;;;;6.97;6.20;;;;;;;24.28;61.28;101584.16;6045064;23;20684;-76
2022/08/31 10:23:56;;;;;;;6.40;6.00;;;;;;;24.09;59.86;101593.13;6030056;23;20141;-76
2022/08/31 10:26:32;;;;;;;7.80;7.30;;;;;;;23.56;61.09;101556.16;6049948;23;20022;-76
2022/08/31 10:29:05;;;;;;;6.55;6.15;;;;;;;24.26;59.24;101588.84;6000282;23;20025;-76
2022/08/31 10:31:44;;;;;;;7.40;6.90;;;;;;;24.40;59.40;101574.94;6052963;23;20026;-75
2022/08/31 10:37:19;;;;;;;6.68;6.28;;;;;;;24.37;57.66;101521.56;6002724;23;20034;-77
2022/08/31 10:39:50;;;;;;;6.80;6.30;;;;;;;23.96;57.30;101453.19;6019449;23;20082;-75
2022/08/31 10:42:28;;;;;;;7.18;6.75;;;;;;;24.67;58.03;101490.88;6046541;23;20085;-75
2022/08/31 10:45:21;;;;;;;7.15;6.68;;;;;;;25.13;56.59;101576.72;6005556;23;20015;-75
2022/08/31 10:47:50;;;;;;;7.03;6.40;;;;;;;25.46;56.23;101574.34;6054753;23;20564;-74
2022/08/31 10:50:28;;;;;;;7.13;6.68;;;;;;;25.43;56.08;101571.97;6022493;23;20477;-76
2022/08/31 10:53:12;;;;;;;7.20;6.70;;;;;;;24.91;55.45;101574.50;6037397;23;20530;-76
2022/08/31 10:55:57;;;;;;;6.72;6.32;;;;;;;24.94;57.70;101580.41;5972178;23;20124;-76
2022/08/31 10:58:49;;;;;;;8.38;7.82;;;;;;;24.78;55.16;101529.25;6044540;23;20029;-75
2022/08/31 11:01:19;;;;;;;7.38;6.97;;;;;;;24.95;56.64;101587.47;6026437;23;20434;-75
2022/08/31 11:04:07;;;;;;;7.18;6.68;;;;;;;25.17;55.91;101585.31;5969779;23;20644;-76
2022/08/31 11:06:54;;;;;;;7.25;6.38;;;;;;;24.71;56.29;101517.41;6048529;23;20088;-76
2022/08/31 11:09:55;;;;;;;8.25;7.63;;;;;;;25.00;55.85;101587.84;5979112;23;20019;-76
2022/08/31 11:12:41;;;;;;;8.50;7.90;;;;;;;24.85;55.33;101547.25;6050691;23;20037;-76
2022/08/31 11:15:24;;;;;;;6.47;6.07;;;;;;;24.98;55.95;101576.44;5996729;23;20011;-76
2022/08/31 11:18:15;;;;;;;7.03;6.53;;;;;;;25.08;55.71;101589.78;6027365;23;20022;-76
2022/08/31 11:20:54;;;;;;;6.88;6.43;;;;;;;24.96;55.18;101583.78;6016009;23;20023;-75
2022/08/31 11:23:52;;;;;;;8.13;7.47;;;;;;;24.62;54.21;101541.50;6031983;23;20014;-76
2022/08/31 11:26:25;;;;;;;7.65;7.15;;;;;;;24.87;54.62;101582.84;6020209;23;20098;-76
2022/08/31 11:29:00;;;;;;;7.30;6.70;;;;;;;24.78;55.97;101551.56;6032253;23;20199;-76
2022/08/31 11:31:29;;;;;;;8.10;7.60;;;;;;;25.15;55.81;101595.38;5998542;23;20037;-76
2022/08/31 11:34:06;;;;;;;7.07;6.57;;;;;;;24.78;54.80;101531.94;6026301;23;20034;-76
2022/08/31 11:36:46;;;;;;;7.05;6.57;;;;;;;24.52;55.36;101465.59;6010178;23;20027;-76
2022/08/31 11:39:14;;;;;;;6.70;6.10;;;;;;;25.09;52.07;101592.28;6050914;23;20049;-75
2022/08/31 11:41:45;;;;;;;6.80;6.40;;;;;;;25.30;52.59;101583.13;5986813;23;20029;-77
2022/08/31 11:44:28;;;;;;;6.90;6.27;;;;;;;25.51;52.90;101585.47;6051358;23;20026;-75
2022/08/31 11:47:08;;;;;;;6.80;6.40;;;;;;;25.59;53.31;101529.06;6023667;23;20039;-77
2022/08/31 11:49:45;;;;;;;7.35;6.78;;;;;;;26.10;54.64;101574.97;6042983;23;20050;-76
2022/08/31 11:52:23;;;;;;;7.00;6.50;;;;;;;25.99;52.29;101573.38;5975831;23;20106;-76
2022/08/31 11:54:49;;;;;;;7.20;6.70;;;;;;;25.91;52.52;101581.41;6044022;23;20030;-77
2022/08/31 11:57:23;;;;;;;7.28;6.78;;;;;;;25.88;52.30;101539.50;6001281;23;20023;-76